createdAt,value
2022-09-09T00:00:37.843Z,18.50
2022-09-09T00:03:46.264Z,15.43
2022-09-09T00:06:38.036Z,10.48
2022-09-09T00:09:27.971Z,21.02
2022-09-09T00:12:16.716Z,11.25
2022-09-09T00:15:21.529Z,14.95
2022-09-09T00:18:23.022Z,12.20
2022-09-09T00:21:18.784Z,19.33
2022-09-09T00:24:33.157Z,23.02
2022-09-09T00:27:30.934Z,21.00
2022-09-09T00:30:24.783Z,16.60
2022-09-09T00:33:16.326Z,18.95
2022-09-09T00:36:04.071Z,18.08
2022-09-09T00:39:00.371Z,17.13
2022-09-09T00:42:04.459Z,19.15
2022-09-09T00:44:56.821Z,17.73
2022-09-09T00:47:53.433Z,9.98
2022-09-09T00:50:56.360Z,18.42
2022-09-09T00:54:09.285Z,20.50
2022-09-09T00:57:18.357Z,21.58
2022-09-09T01:00:19.776Z,23.63
2022-09-09T01:03:28.785Z,15.75
2022-09-09T01:06:22.145Z,11.68
2022-09-09T01:09:32.576Z,18.70
2022-09-09T01:12:48.014Z,11.45
2022-09-09T01:15:40.126Z,12.75
2022-09-09T01:18:30.017Z,12.82
2022-09-09T01:21:21.852Z,22.75
2022-09-09T01:24:23.516Z,10.07
2022-09-09T01:27:36.685Z,14.40
2022-09-09T01:30:23.325Z,10.63
2022-09-09T01:33:15.409Z,17.10
2022-09-09T01:36:04.106Z,16.92
2022-09-09T01:38:55.564Z,12.85
2022-09-09T01:41:42.178Z,13.68
2022-09-09T01:44:32.019Z,8.85
2022-09-09T01:47:18.741Z,11.05
2022-09-09T01:50:24.749Z,7.97
2022-09-09T01:53:13.446Z,11.52
2022-09-09T01:56:16.905Z,6.07
2022-09-09T01:59:09.065Z,9.80
2022-09-09T02:02:18.292Z,8.13
2022-09-09T02:05:40.627Z,8.93
2022-09-09T02:08:47.707Z,11.52
2022-09-09T02:11:34.557Z,10.68
2022-09-09T02:14:37.292Z,14.38
2022-09-09T02:17:32.157Z,7.45
2022-09-09T02:20:35.158Z,7.18
2022-09-09T02:23:22.280Z,6.40
2022-09-09T02:26:20.523Z,6.68
2022-09-09T02:29:30.590Z,4.93
2022-09-09T02:32:21.143Z,7.93
2022-09-09T02:35:18.413Z,11.27
2022-09-09T02:38:10.456Z,7.43
2022-09-09T02:40:59.666Z,7.32
2022-09-09T02:43:45.777Z,5.78
2022-09-09T02:46:50.777Z,7.35
2022-09-09T02:49:55.424Z,8.18
2022-09-09T02:53:00.097Z,5.75
2022-09-09T02:55:57.509Z,6.07
2022-09-09T02:58:43.494Z,10.15
2022-09-09T03:01:29.080Z,7.22
2022-09-09T03:04:15.179Z,7.05
2022-09-09T03:07:00.933Z,7.60
2022-09-09T03:09:47.101Z,7.57
2022-09-09T03:12:34.681Z,10.25
2022-09-09T03:15:20.702Z,11.43
2022-09-09T03:18:06.819Z,8.70
2022-09-09T03:20:55.032Z,8.60
2022-09-09T03:23:41.916Z,6.32
2022-09-09T03:26:27.766Z,11.48
2022-09-09T03:29:15.712Z,8.93
2022-09-09T03:32:01.753Z,14.18
2022-09-09T03:34:48.492Z,15.45
2022-09-09T03:37:35.137Z,7.40
2022-09-09T03:40:21.153Z,7.00
2022-09-09T03:43:07.336Z,10.07
2022-09-09T03:45:53.920Z,9.63
2022-09-09T03:48:39.818Z,7.88
2022-09-09T03:51:25.736Z,14.52
2022-09-09T03:54:11.466Z,8.02
2022-09-09T03:56:59.009Z,11.90
2022-09-09T03:59:45.245Z,14.40
2022-09-09T04:02:31.079Z,7.78
2022-09-09T04:05:17.168Z,6.88
2022-09-09T04:08:05.466Z,15.43
2022-09-09T04:10:51.316Z,8.43
2022-09-09T04:13:40.102Z,11.05
2022-09-09T04:16:28.234Z,8.05
2022-09-09T04:19:15.302Z,7.63
2022-09-09T04:22:02.249Z,9.77
2022-09-09T04:24:48.972Z,12.55
2022-09-09T04:27:37.216Z,12.20
2022-09-09T04:30:23.775Z,9.20
2022-09-09T04:33:10.902Z,9.93
2022-09-09T04:35:58.024Z,10.85
2022-09-09T04:38:45.515Z,14.25
2022-09-09T04:41:32.458Z,16.33
2022-09-09T04:44:18.637Z,15.13
2022-09-09T04:47:04.188Z,10.20
2022-09-09T04:49:49.769Z,13.52
2022-09-09T04:52:36.662Z,12.57
2022-09-09T04:55:22.437Z,12.13
2022-09-09T04:58:09.549Z,8.95
2022-09-09T05:00:55.634Z,9.65
2022-09-09T05:03:41.684Z,13.68
2022-09-09T05:06:32.334Z,18.90
2022-09-09T05:09:19.533Z,14.70
2022-09-09T05:12:05.954Z,20.00
2022-09-09T05:14:54.696Z,20.77
2022-09-09T05:17:41.253Z,19.52
2022-09-09T05:20:27.769Z,22.42
2022-09-09T05:23:14.317Z,22.92
2022-09-09T05:26:00.902Z,14.38
2022-09-09T05:28:48.752Z,11.88
2022-09-09T05:31:34.875Z,17.85
2022-09-09T05:34:24.252Z,13.68
2022-09-09T05:37:10.503Z,12.18
2022-09-09T05:39:57.036Z,16.83
2022-09-09T05:42:43.190Z,10.68
2022-09-09T05:45:28.828Z,7.97
2022-09-09T05:48:16.958Z,20.35
2022-09-09T05:51:04.137Z,15.50
2022-09-09T05:53:52.275Z,4.10
2022-09-09T05:56:38.841Z,9.90
2022-09-09T05:59:27.219Z,11.73
2022-09-09T06:02:15.506Z,4.00
2022-09-09T06:05:01.167Z,12.73
2022-09-09T06:07:48.109Z,10.85
2022-09-09T06:10:35.120Z,8.88
2022-09-09T06:13:21.149Z,24.10
2022-09-09T06:16:12.553Z,12.40
2022-09-09T06:19:00.679Z,7.50
2022-09-09T06:21:48.815Z,10.43
2022-09-09T06:24:35.376Z,8.65
2022-09-09T06:27:22.348Z,8.02
2022-09-09T06:30:08.906Z,13.02
2022-09-09T06:32:56.660Z,11.93
2022-09-09T06:35:42.469Z,12.38
2022-09-09T06:38:28.881Z,11.35
2022-09-09T06:41:17.100Z,13.68
2022-09-09T06:44:04.772Z,13.80
2022-09-09T06:46:58.393Z,8.43
2022-09-09T06:49:48.231Z,19.67
2022-09-09T06:52:35.122Z,22.40
2022-09-09T06:55:21.907Z,11.10
2022-09-09T06:58:10.734Z,16.90
2022-09-09T07:01:08.999Z,11.25
2022-09-09T07:03:56.971Z,7.80
2022-09-09T07:06:45.134Z,12.30
2022-09-09T07:09:34.112Z,8.93
2022-09-09T07:12:19.810Z,13.77
2022-09-09T07:15:14.012Z,13.60
2022-09-09T07:18:03.445Z,8.77
2022-09-09T07:20:58.919Z,13.73
2022-09-09T07:23:46.053Z,12.52
2022-09-09T07:26:32.429Z,16.75
2022-09-09T07:29:21.133Z,14.93
2022-09-09T07:32:09.027Z,10.30
2022-09-09T07:34:57.078Z,10.20
2022-09-09T07:37:45.752Z,16.90
2022-09-09T07:40:37.255Z,13.95
2022-09-09T07:43:27.557Z,14.35
2022-09-09T07:46:15.920Z,16.70
2022-09-09T07:49:02.194Z,15.35
2022-09-09T07:51:50.986Z,13.20
2022-09-09T07:54:37.767Z,15.82
2022-09-09T07:57:25.683Z,19.30
2022-09-09T08:00:13.398Z,14.60
2022-09-09T08:03:01.903Z,11.38
2022-09-09T08:05:48.081Z,16.88
2022-09-09T08:08:34.897Z,12.40
2022-09-09T08:11:20.940Z,15.55
2022-09-09T08:14:09.723Z,19.98
2022-09-09T08:16:56.098Z,16.27
2022-09-09T08:19:45.577Z,16.00
2022-09-09T08:22:38.680Z,22.13
2022-09-09T08:25:24.850Z,25.88
2022-09-09T08:28:11.836Z,27.35
2022-09-09T08:31:10.344Z,40.55
2022-09-09T08:33:58.201Z,34.72
2022-09-09T08:36:46.089Z,27.10
2022-09-09T08:39:33.825Z,21.08
2022-09-09T08:42:45.489Z,21.42
2022-09-09T08:45:38.417Z,23.15
2022-09-09T08:48:57.711Z,26.63
2022-09-09T08:51:44.146Z,26.15
2022-09-09T08:54:51.642Z,26.67
2022-09-09T08:57:38.295Z,21.83
2022-09-09T09:00:27.995Z,22.30
2022-09-09T09:03:23.757Z,25.98
2022-09-09T09:06:32.034Z,23.90
2022-09-09T09:09:37.078Z,20.65
2022-09-09T09:12:26.046Z,18.88
2022-09-09T09:15:24.229Z,26.77
2022-09-09T09:18:14.236Z,25.75
2022-09-09T09:21:13.666Z,26.63
2022-09-09T09:24:02.165Z,32.50
2022-09-09T09:26:52.319Z,31.67
2022-09-09T09:30:03.530Z,27.00
2022-09-09T09:33:06.437Z,29.42
2022-09-09T09:35:52.822Z,28.42
2022-09-09T09:41:48.791Z,25.60
2022-09-09T09:44:38.178Z,31.00
2022-09-09T09:47:31.308Z,29.92
2022-09-09T09:50:26.381Z,27.77
2022-09-09T09:53:27.560Z,29.08
2022-09-09T09:56:15.876Z,28.85
2022-09-09T09:59:09.287Z,50.75
2022-09-09T10:02:27.881Z,30.05
2022-09-09T10:05:35.840Z,27.17
2022-09-09T10:08:29.328Z,28.13
2022-09-09T10:11:28.120Z,20.40
2022-09-09T10:14:31.252Z,20.63
2022-09-09T10:17:30.797Z,22.27
2022-09-09T10:20:35.419Z,20.25
2022-09-09T10:24:15.513Z,22.17
2022-09-09T10:27:18.779Z,16.45
2022-09-09T10:33:44.588Z,23.00
2022-09-09T10:36:30.771Z,24.95
2022-09-09T10:39:29.921Z,15.93
2022-09-09T10:42:17.995Z,22.13
2022-09-09T10:45:20.282Z,16.85
2022-09-09T10:48:11.696Z,13.52
2022-09-09T10:51:27.121Z,11.48
2022-09-09T10:54:23.905Z,15.13
2022-09-09T10:57:23.358Z,12.38
2022-09-09T11:00:37.862Z,17.25
2022-09-09T11:03:30.296Z,11.70
2022-09-09T11:06:22.163Z,18.20
2022-09-09T11:09:18.145Z,15.98
2022-09-09T11:12:04.379Z,14.40
2022-09-09T11:15:03.425Z,20.60
2022-09-09T11:17:55.608Z,11.88
2022-09-09T11:20:41.473Z,12.45
2022-09-09T11:23:45.266Z,16.08
2022-09-09T11:26:42.334Z,9.00
2022-09-09T11:29:47.407Z,16.92
2022-09-09T11:33:05.341Z,11.38
2022-09-09T11:36:18.561Z,17.30
2022-09-09T11:39:36.983Z,14.40
2022-09-09T11:42:25.348Z,9.32
2022-09-09T11:45:30.298Z,14.25
2022-09-09T11:48:34.229Z,14.60
2022-09-09T11:51:20.181Z,15.93
2022-09-09T11:54:33.137Z,12.32
2022-09-09T11:57:34.320Z,18.50
2022-09-09T12:00:45.471Z,11.32
2022-09-09T12:03:47.920Z,10.00
2022-09-09T12:06:54.059Z,6.17
2022-09-09T12:09:49.498Z,11.25
2022-09-09T12:12:41.767Z,12.50
2022-09-09T12:15:30.359Z,16.15
2022-09-09T12:18:26.272Z,10.98
2022-09-09T12:21:37.546Z,15.45
2022-09-09T12:24:34.458Z,13.13
2022-09-09T12:27:34.949Z,6.38
2022-09-09T12:30:22.605Z,15.70
2022-09-09T12:33:35.157Z,8.05
2022-09-09T12:36:33.558Z,11.43
2022-09-09T12:39:52.255Z,14.38
2022-09-09T12:42:41.643Z,10.93
2022-09-09T12:45:33.745Z,9.70
2022-09-09T12:48:21.088Z,7.95
2022-09-09T12:51:19.137Z,10.70
2022-09-09T12:54:06.872Z,10.10
2022-09-09T12:56:52.863Z,6.28
2022-09-09T12:59:42.880Z,8.18
2022-09-09T13:02:31.490Z,10.10
2022-09-09T13:05:21.217Z,10.27
2022-09-09T13:08:11.207Z,18.95
2022-09-09T13:11:05.793Z,7.30
2022-09-09T13:13:55.047Z,9.73
2022-09-09T13:16:43.091Z,9.88
2022-09-09T13:19:34.123Z,12.40
2022-09-09T13:22:36.660Z,10.52
2022-09-09T13:25:29.865Z,28.77
2022-09-09T13:28:25.542Z,9.05
2022-09-09T13:31:24.096Z,11.73
2022-09-09T13:34:32.174Z,12.48
2022-09-09T13:37:34.666Z,11.55
2022-09-09T13:40:23.724Z,7.82
2022-09-09T13:43:22.105Z,6.90
2022-09-09T13:46:33.321Z,34.97
2022-09-09T13:49:23.955Z,20.45
2022-09-09T13:52:16.577Z,10.82
2022-09-09T13:55:02.470Z,6.65
2022-09-09T13:58:03.846Z,7.13
2022-09-09T14:00:52.834Z,6.32
2022-09-09T14:03:39.285Z,7.18
2022-09-09T14:06:25.262Z,6.90
2022-09-09T14:09:16.723Z,6.35
2022-09-09T14:12:03.291Z,10.95
2022-09-09T14:14:49.137Z,17.13
2022-09-09T14:17:37.076Z,8.38
2022-09-09T14:20:23.109Z,6.35
2022-09-09T14:23:42.088Z,8.50
2022-09-09T14:26:29.800Z,7.95
2022-09-09T14:29:15.399Z,5.32
2022-09-09T14:32:04.452Z,12.05
2022-09-09T14:34:50.714Z,7.80
2022-09-09T14:37:36.417Z,11.40
2022-09-09T14:40:22.604Z,7.38
2022-09-09T14:43:12.208Z,11.77
2022-09-09T14:45:57.860Z,9.60
2022-09-09T14:48:46.267Z,7.63
2022-09-09T14:51:32.774Z,9.85
2022-09-09T14:54:18.160Z,9.02
2022-09-09T14:57:03.839Z,9.98
2022-09-09T14:59:51.425Z,14.18
2022-09-09T15:02:39.259Z,9.05
2022-09-09T15:05:25.446Z,14.82
2022-09-09T15:08:11.147Z,14.05
2022-09-09T15:11:04.568Z,5.03
2022-09-09T15:13:53.912Z,6.40
2022-09-09T15:16:40.785Z,6.68
2022-09-09T15:19:26.752Z,15.50
2022-09-09T15:22:14.353Z,19.13
2022-09-09T15:24:59.648Z,17.17
2022-09-09T15:27:45.256Z,44.17
2022-09-09T15:30:31.254Z,7.13
2022-09-09T15:33:17.339Z,10.55
2022-09-09T15:36:17.805Z,8.07
2022-09-09T15:39:05.765Z,9.68
2022-09-09T15:41:52.190Z,8.20
2022-09-09T15:44:43.598Z,6.90
2022-09-09T15:47:29.406Z,14.50
2022-09-09T15:50:15.062Z,9.00
2022-09-09T15:53:01.250Z,4.72
2022-09-09T15:55:47.153Z,7.43
2022-09-09T15:58:32.679Z,5.80
2022-09-09T16:01:19.982Z,10.20
2022-09-09T16:04:06.081Z,10.38
2022-09-09T16:06:56.779Z,7.72
2022-09-09T16:09:44.399Z,13.07
2022-09-09T16:12:30.331Z,7.15
2022-09-09T16:15:15.826Z,11.68
2022-09-09T16:18:01.567Z,9.57
2022-09-09T16:20:55.781Z,12.02
2022-09-09T16:23:41.560Z,8.18
2022-09-09T16:26:28.711Z,8.35
2022-09-09T16:29:16.555Z,6.47
2022-09-09T16:32:04.249Z,7.72
2022-09-09T16:34:50.074Z,10.65
2022-09-09T16:37:35.744Z,11.30
2022-09-09T16:40:21.556Z,12.27
2022-09-09T16:43:07.962Z,6.03
2022-09-09T16:45:53.779Z,10.95
2022-09-09T16:48:39.488Z,9.88
2022-09-09T16:51:31.242Z,4.80
2022-09-09T16:54:18.208Z,12.57
2022-09-09T16:57:04.300Z,10.75
2022-09-09T16:59:51.160Z,7.53
2022-09-09T17:02:36.644Z,6.25
2022-09-09T17:05:22.700Z,12.10
2022-09-09T17:08:08.270Z,8.40
2022-09-09T17:10:53.721Z,12.93
2022-09-09T17:13:38.962Z,11.95
2022-09-09T17:16:28.437Z,15.70
2022-09-09T17:19:15.339Z,10.63
2022-09-09T17:22:16.111Z,9.05
2022-09-09T17:25:02.634Z,11.82
2022-09-09T17:27:48.505Z,10.20
2022-09-09T17:30:38.005Z,10.07
2022-09-09T17:33:24.159Z,15.75
2022-09-09T17:36:17.281Z,8.48
2022-09-09T17:39:03.981Z,5.40
2022-09-09T17:41:50.005Z,21.65
2022-09-09T17:44:36.534Z,11.38
2022-09-09T17:47:22.244Z,11.68
2022-09-09T17:50:14.621Z,21.30
2022-09-09T17:53:00.234Z,11.37
2022-09-09T17:55:48.787Z,10.40
2022-09-09T17:58:37.701Z,15.88
2022-09-09T18:01:28.370Z,12.10
2022-09-09T18:04:16.479Z,7.55
2022-09-09T18:07:02.249Z,14.63
2022-09-09T18:09:50.099Z,13.98
2022-09-09T18:12:35.618Z,12.45
2022-09-09T18:15:39.149Z,9.48
2022-09-09T18:18:29.076Z,13.10
2022-09-09T18:21:14.897Z,5.82
2022-09-09T18:24:02.617Z,14.00
2022-09-09T18:26:50.113Z,7.13
2022-09-09T18:29:35.592Z,10.30
2022-09-09T18:32:21.513Z,16.95
2022-09-09T18:35:07.401Z,19.92
2022-09-09T18:37:53.197Z,16.20
2022-09-09T18:40:38.697Z,13.48
2022-09-09T18:43:24.642Z,15.52
2022-09-09T18:46:12.185Z,18.10
2022-09-09T18:48:58.159Z,12.13
2022-09-09T18:51:45.267Z,9.13
2022-09-09T18:54:33.447Z,12.50
2022-09-09T18:57:19.478Z,9.65
2022-09-09T19:00:08.337Z,11.20
2022-09-09T19:02:53.930Z,11.40
2022-09-09T19:05:39.781Z,11.25
2022-09-09T19:08:25.711Z,10.02
2022-09-09T19:11:18.813Z,9.65
2022-09-09T19:14:08.150Z,11.10
2022-09-09T19:16:56.512Z,6.20
2022-09-09T19:19:42.472Z,7.53
2022-09-09T19:22:29.564Z,8.65
2022-09-09T19:25:16.132Z,8.30
2022-09-09T19:28:03.773Z,11.18
2022-09-09T19:30:49.810Z,7.32
2022-09-09T19:33:37.324Z,8.15
2022-09-09T19:36:24.313Z,11.30
2022-09-09T19:39:10.824Z,6.75
2022-09-09T19:41:56.572Z,6.20
2022-09-09T19:44:42.207Z,7.85
2022-09-09T19:47:28.308Z,12.88
2022-09-09T19:50:14.285Z,10.18
2022-09-09T19:56:47.947Z,4.47
2022-09-09T19:59:35.340Z,5.70
2022-09-09T20:02:21.088Z,9.88
2022-09-09T20:05:07.742Z,12.00
2022-09-09T20:07:54.222Z,10.30
2022-09-09T20:10:40.516Z,9.88
2022-09-09T20:13:26.728Z,6.80
2022-09-09T20:16:15.915Z,9.63
2022-09-09T20:19:05.457Z,13.60
2022-09-09T20:21:52.576Z,10.40
2022-09-09T20:24:38.210Z,10.02
2022-09-09T20:27:23.768Z,8.30
2022-09-09T20:30:09.913Z,16.67
2022-09-09T20:32:56.009Z,9.68
2022-09-09T20:35:42.032Z,13.45
2022-09-09T20:38:27.985Z,10.93
2022-09-09T20:41:15.095Z,6.93
2022-09-09T20:44:03.972Z,8.18
2022-09-09T20:46:52.616Z,9.52
2022-09-09T20:49:37.999Z,14.00
2022-09-09T20:52:23.665Z,9.05
2022-09-09T20:55:09.738Z,14.82
2022-09-09T20:57:58.561Z,16.65
2022-09-09T21:00:44.072Z,10.70
2022-09-09T21:03:32.616Z,18.15
2022-09-09T21:06:18.640Z,9.43
2022-09-09T21:09:04.490Z,11.75
2022-09-09T21:11:50.843Z,13.15
2022-09-09T21:14:36.921Z,11.73
2022-09-09T21:17:22.568Z,10.57
2022-09-09T21:20:09.467Z,13.40
2022-09-09T21:22:55.210Z,8.63
2022-09-09T21:25:41.849Z,8.90
2022-09-09T21:28:28.400Z,9.23
2022-09-09T21:31:16.448Z,9.05
2022-09-09T21:34:02.259Z,10.63
2022-09-09T21:36:47.603Z,12.57
2022-09-09T21:39:33.929Z,12.60
2022-09-09T21:42:19.809Z,14.07
2022-09-09T21:45:06.219Z,10.38
2022-09-09T21:47:52.588Z,11.55
2022-09-09T21:50:39.764Z,9.50
2022-09-09T21:53:25.188Z,8.25
2022-09-09T21:56:14.818Z,14.75
2022-09-09T21:59:03.818Z,6.95
2022-09-09T22:01:49.832Z,10.73
2022-09-09T22:04:37.189Z,17.23
2022-09-09T22:07:22.537Z,10.35
2022-09-09T22:10:10.018Z,11.93
2022-09-09T22:12:55.797Z,7.78
2022-09-09T22:15:45.007Z,15.32
2022-09-09T22:18:32.157Z,7.72
2022-09-09T22:21:18.302Z,10.27
2022-09-09T22:24:05.749Z,12.88
2022-09-09T22:26:55.574Z,12.73
2022-09-09T22:29:41.706Z,15.43
2022-09-09T22:32:27.378Z,17.23
2022-09-09T22:35:12.973Z,8.20
2022-09-09T22:37:58.781Z,10.73
2022-09-09T22:40:44.163Z,14.20
2022-09-09T22:43:32.913Z,10.30
2022-09-09T22:46:18.957Z,14.27
2022-09-09T22:49:05.164Z,18.38
2022-09-09T22:51:50.710Z,9.00
2022-09-09T22:54:36.364Z,12.75
2022-09-09T22:57:21.882Z,12.50
2022-09-09T23:00:12.297Z,11.30
2022-09-09T23:02:58.379Z,8.98
2022-09-09T23:05:53.468Z,28.98
2022-09-09T23:08:39.311Z,15.07
2022-09-09T23:11:28.066Z,17.90
2022-09-09T23:14:14.897Z,12.50
2022-09-09T23:17:02.628Z,18.27
2022-09-09T23:19:53.183Z,20.50
2022-09-09T23:22:40.605Z,15.27
2022-09-09T23:25:27.425Z,19.40
2022-09-09T23:28:13.520Z,23.52
2022-09-09T23:30:59.683Z,21.58
2022-09-09T23:33:46.353Z,16.85
2022-09-09T23:36:33.037Z,21.73
2022-09-09T23:39:18.909Z,21.60
2022-09-09T23:42:08.007Z,20.55
2022-09-09T23:44:54.130Z,21.75
2022-09-09T23:47:39.462Z,28.00
2022-09-09T23:50:24.977Z,22.63
2022-09-09T23:53:15.541Z,22.40
2022-09-09T23:56:03.002Z,23.45
2022-09-09T23:58:49.914Z,21.17
